Time;durP1;ratioP1;P1;durP2;ratioP2;P2;SDS_P1;SDS_P2;PMS_P1;PMS_P2;Temp;Humidity;BMP_temperature;BMP_pressure;BME280_temperature;BME280_humidity;BME280_pressure;Samples;Min_cycle;Max_cycle;Signal;HPM_P1;HPM_P2
2022/05/19 00:02:03;;;;;;;4.00;3.70;;;27.20;82.10;;;;;;4979697;28;20465;-92
2022/05/19 00:04:29;;;;;;;5.40;4.50;;;27.10;82.10;;;;;;4959860;28;20900;-92
2022/05/19 00:06:56;;;;;;;5.00;4.53;;;27.10;82.10;;;;;;4976941;28;20429;-92
2022/05/19 00:09:23;;;;;;;4.60;4.20;;;27.10;82.10;;;;;;4985182;28;20457;-93
2022/05/19 00:11:50;;;;;;;4.50;4.10;;;27.10;82.10;;;;;;4969889;28;20507;-92
2022/05/19 00:14:42;;;;;;;4.43;4.10;;;27.10;82.00;;;;;;4980386;28;20754;-92
2022/05/19 00:17:08;;;;;;;4.77;4.37;;;27.00;81.90;;;;;;4963558;28;20446;-93
2022/05/19 00:19:34;;;;;;;5.27;4.77;;;27.00;81.90;;;;;;4995812;28;20421;-92
2022/05/19 00:22:01;;;;;;;4.10;3.80;;;27.00;81.90;;;;;;4980051;28;20520;-92
2022/05/19 00:24:29;;;;;;;4.20;3.90;;;27.00;81.90;;;;;;4963710;28;20466;-92
2022/05/19 00:26:57;;;;;;;4.17;3.77;;;27.00;81.80;;;;;;4963642;28;20454;-92
2022/05/19 00:29:27;;;;;;;4.10;3.80;;;27.00;81.80;;;;;;4963793;28;20473;-92
2022/05/19 00:31:55;;;;;;;3.83;3.53;;;27.00;81.80;;;;;;4963029;28;20513;-92
2022/05/19 00:34:46;;;;;;;4.57;4.17;;;26.90;81.80;;;;;;4992081;28;20413;-92
2022/05/19 00:37:12;;;;;;;3.93;3.63;;;26.90;81.70;;;;;;4977989;28;20441;-93
2022/05/19 00:39:38;;;;;;;4.30;3.90;;;26.90;81.70;;;;;;4982496;28;20213;-92
2022/05/19 00:44:49;;;;;;;4.20;3.80;;;26.90;81.70;;;;;;4998551;28;20461;-92
2022/05/19 00:47:23;;;;;;;3.70;3.40;;;26.80;81.60;;;;;;4982244;28;20441;-91
2022/05/19 00:49:50;;;;;;;4.60;4.20;;;26.80;81.60;;;;;;4998417;28;20412;-91
2022/05/19 00:52:30;;;;;;;4.07;3.67;;;26.80;81.50;;;;;;4998010;28;20867;-92
2022/05/19 00:55:11;;;;;;;4.70;3.83;;;26.80;81.50;;;;;;4982307;28;20429;-92
2022/05/19 00:57:43;;;;;;;4.70;4.20;;;26.80;81.50;;;;;;4998217;28;20463;-91
2022/05/19 01:00:12;;;;;;;4.80;4.03;;;26.70;81.40;;;;;;4996190;28;20485;-92
2022/05/19 01:02:42;;;;;;;5.80;4.17;;;26.70;81.40;;;;;;4962555;28;20517;-92
2022/05/19 01:05:23;;;;;;;3.93;3.37;;;26.70;81.40;;;;;;4978399;28;20437;-93
2022/05/19 01:07:57;;;;;;;4.40;3.90;;;26.70;81.40;;;;;;4962947;28;20429;-91
2022/05/19 01:10:25;;;;;;;5.00;4.13;;;26.70;81.30;;;;;;4978634;28;20416;-90
2022/05/19 01:12:52;;;;;;;4.17;3.67;;;26.70;81.40;;;;;;4962625;28;20453;-91
2022/05/19 01:15:19;;;;;;;4.30;3.53;;;26.70;81.30;;;;;;4962461;28;20456;-92
2022/05/19 01:17:46;;;;;;;4.70;4.00;;;26.70;81.30;;;;;;4961690;28;20441;-92
2022/05/19 01:20:19;;;;;;;3.70;3.40;;;26.60;81.20;;;;;;4978083;28;20516;-91
2022/05/19 01:22:54;;;;;;;4.20;3.90;;;26.60;81.30;;;;;;4962259;28;20787;-92
2022/05/19 01:25:50;;;;;;;4.10;3.80;;;26.60;81.20;;;;;;4962231;28;20461;-92
2022/05/19 01:28:17;;;;;;;3.60;3.30;;;26.60;81.10;;;;;;4978491;28;20406;-92
2022/05/19 01:30:44;;;;;;;4.40;4.00;;;26.60;81.20;;;;;;4962281;28;20527;-92
2022/05/19 01:33:10;;;;;;;3.90;3.57;;;26.60;81.20;;;;;;4962433;28;20434;-92
2022/05/19 01:35:36;;;;;;;4.00;3.60;;;26.60;81.20;;;;;;4972177;28;20495;-91
2022/05/19 01:38:07;;;;;;;3.53;3.23;;;26.50;81.10;;;;;;4971936;28;20441;-92
2022/05/19 01:40:59;;;;;;;3.57;3.27;;;26.50;81.10;;;;;;4972921;28;20440;-93
2022/05/19 01:43:38;;;;;;;3.47;3.20;;;26.50;81.90;;;;;;4997755;28;20471;-92
2022/05/19 01:46:25;;;;;;;6.03;3.57;;;26.50;81.00;;;;;;4981132;28;20914;-92
2022/05/19 01:49:21;;;;;;;3.03;2.80;;;26.50;80.90;;;;;;4981365;28;20831;-91
2022/05/19 01:51:53;;;;;;;3.87;3.67;;;26.40;80.70;;;;;;4997132;28;20526;-91
2022/05/19 01:54:35;;;;;;;3.63;3.30;;;26.40;81.50;;;;;;4981651;28;20905;-91
2022/05/19 01:57:08;;;;;;;3.23;3.03;;;26.40;80.70;;;;;;4997315;28;20823;-92
2022/05/19 01:59:46;;;;;;;6.17;3.30;;;26.40;80.80;;;;;;4965042;28;20743;-90
2022/05/19 02:02:33;;;;;;;3.83;3.53;;;26.40;80.70;;;;;;4997229;28;20513;-92
2022/05/19 02:05:19;;;;;;;4.10;3.20;;;26.40;80.70;;;;;;4997037;28;20453;-91
2022/05/19 02:07:49;;;;;;;6.73;3.80;;;26.40;80.70;;;;;;4981426;28;20441;-91
2022/05/19 02:10:20;;;;;;;3.70;3.40;;;26.30;80.70;;;;;;4980728;28;20440;-92
2022/05/19 02:12:48;;;;;;;3.93;3.63;;;26.30;80.70;;;;;;4980389;28;20513;-92
2022/05/19 02:15:17;;;;;;;4.73;4.03;;;26.30;80.70;;;;;;4980665;28;20425;-92
2022/05/19 02:17:49;;;;;;;3.87;3.40;;;26.30;80.70;;;;;;4996822;28;20595;-91
2022/05/19 02:20:20;;;;;;;3.90;3.60;;;26.30;80.70;;;;;;4980540;28;20458;-90
2022/05/19 02:22:46;;;;;;;4.03;3.60;;;26.30;80.70;;;;;;4975443;28;20508;-91
2022/05/19 02:25:18;;;;;;;3.33;3.03;;;26.30;80.60;;;;;;4961679;28;20442;-92
2022/05/19 02:28:02;;;;;;;3.97;3.67;;;26.20;80.50;;;;;;4961164;28;20443;-93
2022/05/19 02:30:34;;;;;;;3.40;3.10;;;26.20;80.50;;;;;;4960403;28;20973;-91
2022/05/19 02:33:01;;;;;;;3.57;3.27;;;26.20;80.40;;;;;;4977233;28;20721;-91
2022/05/19 02:35:28;;;;;;;3.63;3.03;;;26.20;80.40;;;;;;4976920;28;20425;-92
2022/05/19 02:37:55;;;;;;;4.70;3.30;;;26.10;81.10;;;;;;4992121;28;20463;-91
2022/05/19 02:40:23;;;;;;;3.50;3.20;;;26.20;80.40;;;;;;4964421;28;20433;-92
2022/05/19 02:42:49;;;;;;;3.57;3.27;;;26.20;80.40;;;;;;4980034;28;20812;-92
2022/05/19 02:45:17;;;;;;;3.63;3.33;;;26.20;80.50;;;;;;4964340;28;20429;-92
2022/05/19 02:47:43;;;;;;;3.60;3.30;;;26.10;80.40;;;;;;4964959;28;20472;-92
2022/05/19 02:50:11;;;;;;;3.73;3.43;;;26.10;80.40;;;;;;4961387;28;20454;-95
2022/05/19 02:52:37;;;;;;;4.00;3.60;;;26.10;80.40;;;;;;4974058;28;20465;-94
2022/05/19 02:55:04;;;;;;;3.73;3.43;;;26.10;80.40;;;;;;4979920;28;20968;-94
2022/05/19 02:57:30;;;;;;;3.50;3.30;;;26.10;80.40;;;;;;4996851;28;20419;-95
2022/05/19 02:59:56;;;;;;;4.30;3.37;;;26.10;80.30;;;;;;4963878;28;20556;-94
2022/05/19 03:02:22;;;;;;;3.93;3.63;;;26.10;80.30;;;;;;4996443;28;20952;-95
2022/05/19 03:04:48;;;;;;;5.43;3.77;;;26.10;80.30;;;;;;4980206;28;20535;-95
2022/05/19 03:07:14;;;;;;;3.87;3.43;;;26.00;80.20;;;;;;4977189;28;20246;-94
2022/05/19 03:09:45;;;;;;;4.20;3.57;;;26.00;80.20;;;;;;4976675;28;20444;-94
2022/05/19 03:12:13;;;;;;;3.73;3.43;;;26.00;80.20;;;;;;4979751;28;20462;-93
2022/05/19 03:14:39;;;;;;;4.60;3.67;;;26.00;80.30;;;;;;4979994;28;20413;-93
2022/05/19 03:17:09;;;;;;;3.53;3.23;;;26.00;80.30;;;;;;4995847;28;20445;-94
2022/05/19 03:19:37;;;;;;;3.50;3.20;;;26.00;80.30;;;;;;4979890;28;20488;-94
2022/05/19 03:22:05;;;;;;;3.97;3.67;;;25.90;80.20;;;;;;4980340;28;20548;-93
2022/05/19 03:24:31;;;;;;;3.37;3.17;;;25.90;80.20;;;;;;4944705;28;20472;-94
2022/05/19 03:26:57;;;;;;;4.50;3.60;;;25.90;80.20;;;;;;4976456;28;20497;-95
2022/05/19 03:29:23;;;;;;;3.50;3.20;;;25.90;80.30;;;;;;4976425;28;20430;-94
2022/05/19 03:31:50;;;;;;;3.60;3.30;;;25.90;80.30;;;;;;4976113;28;20489;-94
2022/05/19 03:34:18;;;;;;;3.93;3.50;;;25.90;80.30;;;;;;4960670;28;20467;-94
2022/05/19 03:36:46;;;;;;;4.00;3.60;;;25.90;80.30;;;;;;4967244;28;20433;-95
2022/05/19 03:39:12;;;;;;;3.67;3.20;;;25.90;80.30;;;;;;4979693;28;20445;-94
2022/05/19 03:41:38;;;;;;;4.10;3.70;;;25.90;80.30;;;;;;4996815;28;20409;-95
2022/05/19 03:44:05;;;;;;;3.17;2.97;;;25.90;80.40;;;;;;4983863;28;20425;-94
2022/05/19 03:46:31;;;;;;;3.63;3.33;;;25.80;80.30;;;;;;5000012;28;20436;-94
2022/05/19 03:48:57;;;;;;;3.30;3.10;;;25.80;80.20;;;;;;4968194;28;20433;-94
2022/05/19 03:51:27;;;;;;;3.80;3.50;;;25.80;80.30;;;;;;4983150;28;20561;-93
2022/05/19 03:53:54;;;;;;;4.10;3.70;;;25.80;80.30;;;;;;4999620;28;20433;-93
2022/05/19 03:56:22;;;;;;;4.30;3.67;;;25.70;80.10;;;;;;4999723;28;20446;-94
2022/05/19 03:58:49;;;;;;;3.70;3.40;;;25.70;80.10;;;;;;4983375;28;20436;-94
2022/05/19 04:01:16;;;;;;;4.40;3.20;;;25.70;80.10;;;;;;4983422;28;20888;-93
2022/05/19 04:03:42;;;;;;;3.40;3.20;;;25.70;80.10;;;;;;4983915;28;20490;-93
2022/05/19 04:06:08;;;;;;;3.67;3.37;;;25.70;80.10;;;;;;4967033;28;20423;-94
2022/05/19 04:08:37;;;;;;;5.10;3.57;;;25.70;80.20;;;;;;4999824;28;20508;-93
2022/05/19 04:11:04;;;;;;;3.97;3.57;;;25.70;80.20;;;;;;4983199;28;20465;-93
2022/05/19 04:13:30;;;;;;;4.20;3.80;;;25.70;80.20;;;;;;4999952;28;20536;-94
2022/05/19 04:15:59;;;;;;;3.83;3.53;;;25.60;80.10;;;;;;4983795;28;20446;-95
2022/05/19 04:18:26;;;;;;;3.43;3.20;;;25.60;80.00;;;;;;4979678;28;20529;-93
2022/05/19 04:20:52;;;;;;;3.73;3.33;;;25.60;80.10;;;;;;4985356;28;20426;-93
2022/05/19 04:23:18;;;;;;;5.73;3.93;;;25.60;80.10;;;;;;4967028;28;20733;-94
2022/05/19 04:25:44;;;;;;;3.80;3.43;;;25.60;80.10;;;;;;4982775;28;20431;-94
2022/05/19 04:28:10;;;;;;;3.67;3.47;;;25.60;80.10;;;;;;4982792;28;20450;-93
2022/05/19 04:30:41;;;;;;;4.40;3.37;;;25.60;80.10;;;;;;4983114;28;20425;-93
2022/05/19 04:33:16;;;;;;;4.37;3.73;;;25.60;80.00;;;;;;4983483;28;20461;-94
2022/05/19 04:35:42;;;;;;;4.23;3.40;;;25.50;79.90;;;;;;4974639;28;20748;-94
2022/05/19 04:38:13;;;;;;;3.60;3.30;;;25.50;80.00;;;;;;4963580;28;20450;-94
2022/05/19 04:40:41;;;;;;;3.90;3.60;;;25.50;79.90;;;;;;4979911;28;20467;-93
2022/05/19 04:43:08;;;;;;;4.20;3.90;;;25.50;79.80;;;;;;4999150;28;20478;-94
2022/05/19 04:45:34;;;;;;;6.37;4.17;;;25.50;79.80;;;;;;4982951;28;20568;-93
2022/05/19 04:48:00;;;;;;;4.10;3.80;;;25.50;79.80;;;;;;4982574;28;20429;-94
2022/05/19 04:50:27;;;;;;;4.00;3.70;;;25.50;79.70;;;;;;4982521;28;20424;-92
2022/05/19 04:52:58;;;;;;;4.57;3.53;;;25.40;79.60;;;;;;4997941;28;20467;-93
2022/05/19 04:55:24;;;;;;;4.33;3.67;;;25.40;79.60;;;;;;4982384;28;20511;-94
2022/05/19 04:57:50;;;;;;;4.27;3.97;;;25.40;79.70;;;;;;4982701;28;20431;-95
2022/05/19 05:00:16;;;;;;;3.70;3.40;;;25.40;79.70;;;;;;4982227;28;20994;-95
2022/05/19 05:02:42;;;;;;;4.00;3.60;;;25.40;79.70;;;;;;4998564;28;20429;-96
2022/05/19 05:05:09;;;;;;;4.37;3.33;;;25.40;79.70;;;;;;4990173;28;20738;-94
2022/05/19 05:07:35;;;;;;;3.57;3.27;;;25.40;79.70;;;;;;4980996;28;20454;-95
2022/05/19 05:10:02;;;;;;;7.63;4.40;;;25.40;79.70;;;;;;4998401;28;20455;-95
2022/05/19 05:12:28;;;;;;;4.00;3.60;;;25.40;79.70;;;;;;4998366;28;20464;-94
2022/05/19 05:14:54;;;;;;;4.37;3.73;;;25.40;79.60;;;;;;4998179;28;20530;-94
2022/05/19 05:17:21;;;;;;;6.27;4.00;;;25.40;79.50;;;;;;4982241;28;20476;-95
2022/05/19 05:19:48;;;;;;;4.20;3.13;;;25.30;79.50;;;;;;4982204;28;20493;-96
2022/05/19 05:22:14;;;;;;;4.17;3.77;;;25.40;79.60;;;;;;4998304;28;20417;-95
2022/05/19 05:24:40;;;;;;;5.53;3.83;;;25.30;79.60;;;;;;4982056;28;20458;-93
2022/05/19 05:27:07;;;;;;;4.07;3.70;;;25.30;79.60;;;;;;4981929;28;20427;-95
2022/05/19 05:29:35;;;;;;;3.87;3.57;;;25.30;79.50;;;;;;4997756;28;20807;-95
2022/05/19 05:32:01;;;;;;;3.83;3.40;;;25.30;79.40;;;;;;4965702;28;20616;-94
2022/05/19 05:34:27;;;;;;;4.10;3.70;;;25.30;79.40;;;;;;4991674;28;20434;-94
2022/05/19 05:36:53;;;;;;;4.27;3.97;;;25.30;79.60;;;;;;4975833;28;20483;-94
2022/05/19 05:39:19;;;;;;;4.00;3.70;;;25.30;79.60;;;;;;4981665;28;20507;-95
2022/05/19 05:42:10;;;;;;;4.20;3.77;;;25.20;79.60;;;;;;4997966;28;20438;-94
2022/05/19 05:44:37;;;;;;;4.00;3.63;;;25.20;79.50;;;;;;4989031;28;20755;-96
2022/05/19 05:47:03;;;;;;;4.77;3.40;;;25.20;79.60;;;;;;4980860;28;20437;-96
2022/05/19 05:49:29;;;;;;;4.27;3.87;;;25.20;79.60;;;;;;4998593;28;20417;-94
2022/05/19 05:51:55;;;;;;;4.87;3.70;;;25.20;79.70;;;;;;4981005;28;20469;-93
2022/05/19 05:54:21;;;;;;;4.27;3.33;;;25.20;79.70;;;;;;4980514;28;20193;-96
2022/05/19 05:56:47;;;;;;;3.70;3.40;;;25.20;79.80;;;;;;4978075;28;20486;-94
2022/05/19 05:59:13;;;;;;;4.50;3.90;;;25.20;79.90;;;;;;4978086;28;20511;-96
2022/05/19 06:01:39;;;;;;;5.43;3.70;;;25.20;79.90;;;;;;4978813;28;20489;-96
2022/05/19 06:04:08;;;;;;;3.20;3.00;;;25.20;79.90;;;;;;4977505;28;20414;-96
2022/05/19 06:06:34;;;;;;;3.97;3.67;;;25.10;80.00;;;;;;4992054;28;20471;-94
2022/05/19 06:09:00;;;;;;;4.30;3.60;;;25.20;80.00;;;;;;4994908;28;20549;-94
2022/05/19 06:11:26;;;;;;;4.70;3.93;;;25.10;80.00;;;;;;4996984;28;20478;-95
2022/05/19 06:13:52;;;;;;;3.73;3.43;;;25.10;80.00;;;;;;4997573;28;20182;-96
2022/05/19 06:16:18;;;;;;;4.37;3.97;;;25.10;80.10;;;;;;4996796;28;20766;-96
2022/05/19 06:18:45;;;;;;;4.07;3.67;;;25.10;80.10;;;;;;4981141;28;20427;-94
2022/05/19 06:21:11;;;;;;;5.20;3.63;;;25.10;80.20;;;;;;4965859;28;20427;-94
2022/05/19 06:23:37;;;;;;;3.80;3.50;;;25.10;80.20;;;;;;4961402;28;20461;-91
2022/05/19 06:26:03;;;;;;;4.20;3.30;;;25.10;80.20;;;;;;4985147;28;20980;-88
2022/05/19 06:28:29;;;;;;;3.93;3.40;;;25.10;80.30;;;;;;4995857;28;20467;-88
2022/05/19 06:30:58;;;;;;;3.87;3.57;;;25.10;80.30;;;;;;4980367;28;20489;-87
2022/05/19 06:33:29;;;;;;;4.10;3.80;;;25.10;80.30;;;;;;4994875;28;20456;-87
2022/05/19 06:35:58;;;;;;;4.17;3.17;;;25.10;80.40;;;;;;4979394;28;20425;-89
2022/05/19 06:38:46;;;;;;;3.50;3.20;;;25.10;80.40;;;;;;4996011;28;20441;-91
2022/05/19 06:44:04;;;;;;;5.23;4.37;;;25.10;80.30;;;;;;4988134;28;20453;-89
2022/05/19 06:46:30;;;;;;;4.40;3.53;;;25.10;80.40;;;;;;4979255;28;20477;-88
2022/05/19 06:49:02;;;;;;;4.20;3.90;;;25.10;80.40;;;;;;4962483;28;20464;-89
2022/05/19 06:51:32;;;;;;;3.80;3.50;;;25.10;80.50;;;;;;4981158;28;20252;-89
2022/05/19 06:54:03;;;;;;;3.47;3.17;;;25.10;80.40;;;;;;4995398;28;20484;-88
2022/05/19 06:56:33;;;;;;;3.40;3.10;;;25.10;80.40;;;;;;4976769;28;20492;-88
2022/05/19 06:58:59;;;;;;;3.50;3.20;;;25.10;80.30;;;;;;4944775;28;20466;-89
2022/05/19 07:01:25;;;;;;;4.30;3.50;;;25.10;80.30;;;;;;4963981;28;20976;-90
2022/05/19 07:03:55;;;;;;;4.03;3.63;;;25.10;80.30;;;;;;4979979;28;20181;-89
2022/05/19 07:06:21;;;;;;;3.33;3.03;;;25.10;80.30;;;;;;4966875;28;20438;-89
2022/05/19 07:08:49;;;;;;;3.57;3.23;;;25.10;80.30;;;;;;4976571;28;20454;-90
2022/05/19 07:11:27;;;;;;;3.40;3.20;;;25.10;80.30;;;;;;4960787;28;20458;-90
2022/05/19 07:14:04;;;;;;;3.30;3.10;;;25.10;80.30;;;;;;4995264;28;20785;-90
2022/05/19 07:16:35;;;;;;;3.73;3.07;;;25.10;80.30;;;;;;4995889;28;20759;-89
2022/05/19 07:21:51;;;;;;;3.40;3.10;;;25.10;80.30;;;;;;4971632;28;20430;-90
2022/05/19 07:24:20;;;;;;;3.80;3.47;;;25.10;80.30;;;;;;4957560;28;20440;-90
2022/05/19 07:26:55;;;;;;;3.30;3.10;;;25.10;80.30;;;;;;4987452;28;20462;-89
2022/05/19 07:29:24;;;;;;;3.20;2.90;;;25.10;80.30;;;;;;4962987;28;20590;-92
2022/05/19 07:31:52;;;;;;;3.50;3.30;;;25.10;80.30;;;;;;4976165;28;20473;-89
2022/05/19 07:34:21;;;;;;;3.70;3.40;;;25.10;80.30;;;;;;4977987;28;20452;-89
2022/05/19 07:36:47;;;;;;;3.63;3.33;;;25.10;80.30;;;;;;4990719;28;20445;-89
2022/05/19 07:39:16;;;;;;;3.50;3.20;;;25.10;80.30;;;;;;4975315;28;20438;-91
2022/05/19 07:41:43;;;;;;;3.83;3.53;;;25.10;80.30;;;;;;4992152;28;20468;-90
2022/05/19 07:44:09;;;;;;;4.13;3.83;;;25.20;80.40;;;;;;4993767;28;20524;-86
2022/05/19 07:47:00;;;;;;;5.17;4.67;;;25.20;80.40;;;;;;4994615;28;20429;-89
2022/05/19 07:49:31;;;;;;;4.40;3.43;;;25.10;80.40;;;;;;4989871;28;20421;-88
2022/05/19 07:51:57;;;;;;;3.40;3.10;;;25.20;80.50;;;;;;4993288;28;21010;-87
2022/05/19 07:54:27;;;;;;;4.03;3.73;;;25.20;80.60;;;;;;4977755;28;20459;-90
2022/05/19 07:56:55;;;;;;;3.50;3.20;;;25.10;80.60;;;;;;4993185;28;20429;-87
2022/05/19 07:59:24;;;;;;;4.40;4.00;;;25.20;80.70;;;;;;4994071;28;20766;-90
2022/05/19 08:01:53;;;;;;;3.70;3.40;;;25.20;80.70;;;;;;4992208;28;20452;-90
2022/05/19 08:04:22;;;;;;;4.30;4.00;;;25.20;80.80;;;;;;4995061;28;20428;-92
2022/05/19 08:06:48;;;;;;;3.50;3.20;;;25.20;80.80;;;;;;4971776;28;20982;-91
2022/05/19 08:12:02;;;;;;;4.00;3.60;;;25.20;80.90;;;;;;4988352;28;20933;-91
2022/05/19 08:17:19;;;;;;;4.30;3.40;;;25.30;81.00;;;;;;4979458;28;20437;-91
2022/05/19 08:19:47;;;;;;;3.97;3.57;;;25.30;81.10;;;;;;4993169;28;20491;-89
2022/05/19 08:22:13;;;;;;;3.87;3.57;;;25.30;81.10;;;;;;4994366;28;20445;-90
2022/05/19 08:24:39;;;;;;;4.27;3.67;;;25.30;81.10;;;;;;4994482;28;20470;-89
2022/05/19 08:27:06;;;;;;;4.30;3.90;;;25.30;81.10;;;;;;4978293;28;21034;-91
2022/05/19 08:29:32;;;;;;;4.23;3.83;;;25.30;81.10;;;;;;4997869;28;20765;-90
2022/05/19 08:31:58;;;;;;;3.90;3.60;;;25.30;81.10;;;;;;4997416;28;20460;-89
2022/05/19 08:34:24;;;;;;;3.50;3.20;;;25.40;81.10;;;;;;4997402;28;20493;-89
2022/05/19 08:36:52;;;;;;;4.37;3.67;;;25.40;81.10;;;;;;4977800;28;20480;-92
2022/05/19 08:39:19;;;;;;;4.17;3.57;;;25.40;81.10;;;;;;4998623;28;20428;-91
2022/05/19 08:42:01;;;;;;;4.10;3.70;;;25.40;81.20;;;;;;4997907;28;20446;-88
2022/05/19 08:44:49;;;;;;;5.40;4.03;;;25.40;81.30;;;;;;4998053;28;20441;-90
2022/05/19 08:47:22;;;;;;;5.00;4.60;;;25.40;81.30;;;;;;4995692;28;20888;-89
2022/05/19 08:50:03;;;;;;;4.33;3.77;;;25.40;81.40;;;;;;4989279;28;20433;-90
2022/05/19 08:52:43;;;;;;;3.83;3.37;;;25.40;81.50;;;;;;4997647;28;20480;-88
2022/05/19 08:55:13;;;;;;;4.30;3.67;;;25.40;81.50;;;;;;4981994;28;20520;-88
2022/05/19 08:58:18;;;;;;;4.10;3.80;;;25.40;81.50;;;;;;5003425;28;20432;-90
2022/05/19 09:00:49;;;;;;;5.63;3.63;;;25.50;81.60;;;;;;4992945;28;20416;-89
2022/05/19 09:03:35;;;;;;;4.67;4.20;;;25.40;81.60;;;;;;4989873;28;20775;-89
2022/05/19 09:06:17;;;;;;;6.10;3.43;;;25.50;81.70;;;;;;4968953;28;20454;-88
2022/05/19 09:09:07;;;;;;;4.00;3.60;;;25.50;81.70;;;;;;4968282;28;20443;-91
2022/05/19 09:11:55;;;;;;;4.33;3.73;;;25.50;81.80;;;;;;4984753;28;20524;-89
2022/05/19 09:14:28;;;;;;;4.83;3.90;;;25.60;81.80;;;;;;4978958;28;20428;-88
2022/05/19 09:17:05;;;;;;;4.10;3.80;;;25.60;81.80;;;;;;4962419;28;20424;-89
2022/05/19 09:19:33;;;;;;;4.20;3.90;;;25.60;81.80;;;;;;4962583;28;20445;-89
2022/05/19 09:22:06;;;;;;;4.80;4.40;;;25.70;82.70;;;;;;4991686;28;20483;-90
2022/05/19 09:24:32;;;;;;;6.53;4.73;;;25.70;81.90;;;;;;4981139;28;20510;-89
2022/05/19 09:27:01;;;;;;;4.10;3.70;;;25.70;81.90;;;;;;4981948;28;20507;-89
2022/05/19 09:29:39;;;;;;;3.97;3.67;;;25.70;81.80;;;;;;4985569;28;20565;-88
2022/05/19 09:32:15;;;;;;;6.00;3.97;;;25.80;82.00;;;;;;4977996;28;20477;-91
2022/05/19 09:34:46;;;;;;;5.27;3.80;;;25.80;82.00;;;;;;4992535;28;20440;-88
2022/05/19 09:37:35;;;;;;;4.13;3.40;;;25.80;81.90;;;;;;4977395;28;20446;-89
2022/05/19 09:40:17;;;;;;;4.30;3.97;;;25.80;81.90;;;;;;4969985;28;20434;-91
2022/05/19 09:43:25;;;;;;;4.20;3.80;;;25.90;82.00;;;;;;5008379;28;20429;-85
2022/05/19 09:46:14;;;;;;;4.67;4.27;;;25.90;81.90;;;;;;4931652;29;20451;-89
2022/05/19 09:49:01;;;;;;;4.60;4.27;;;26.00;82.00;;;;;;4906899;29;20416;-89
2022/05/19 09:51:39;;;;;;;4.30;3.70;;;26.00;82.00;;;;;;4938682;29;20492;-89
2022/05/19 09:54:12;;;;;;;4.33;3.90;;;26.10;82.00;;;;;;4931228;29;20468;-91
2022/05/19 09:56:48;;;;;;;5.23;4.10;;;26.00;82.00;;;;;;4941442;29;20473;-92
2022/05/19 09:59:17;;;;;;;4.13;3.73;;;26.10;82.00;;;;;;4941265;29;20409;-89
2022/05/19 10:01:46;;;;;;;4.60;3.77;;;26.10;82.00;;;;;;4924245;29;20457;-89
2022/05/19 10:04:26;;;;;;;5.00;4.10;;;26.10;82.00;;;;;;4960869;29;20450;-89
2022/05/19 10:07:06;;;;;;;5.80;4.13;;;26.20;82.00;;;;;;4912738;29;20525;-92
2022/05/19 10:09:42;;;;;;;5.53;4.23;;;26.20;81.90;;;;;;4921077;29;20768;-88
2022/05/19 10:12:16;;;;;;;4.40;3.90;;;26.30;81.80;;;;;;4921891;29;20460;-86
2022/05/19 10:14:57;;;;;;;4.30;3.90;;;26.30;81.70;;;;;;4951335;29;20449;-89
2022/05/19 10:17:39;;;;;;;4.97;4.47;;;26.40;81.70;;;;;;4937111;29;20462;-88
2022/05/19 10:20:11;;;;;;;4.93;4.43;;;26.40;81.60;;;;;;4911755;29;20457;-87
2022/05/19 10:22:56;;;;;;;4.70;4.30;;;26.40;81.50;;;;;;4977173;28;20452;-87
2022/05/19 10:25:37;;;;;;;4.57;4.17;;;26.40;81.40;;;;;;4979953;28;20468;-88
2022/05/19 10:31:13;;;;;;;4.73;4.13;;;26.50;81.40;;;;;;4983470;28;20504;-87
2022/05/19 10:33:54;;;;;;;5.23;4.53;;;26.60;81.40;;;;;;4993591;28;20436;-89
2022/05/19 10:36:35;;;;;;;6.80;4.23;;;26.60;81.20;;;;;;4963612;28;20432;-88
2022/05/19 10:39:16;;;;;;;4.67;4.17;;;26.60;81.10;;;;;;4979597;28;20444;-87
2022/05/19 10:41:50;;;;;;;4.43;4.07;;;26.70;81.10;;;;;;4982766;28;20483;-89
2022/05/19 10:44:47;;;;;;;6.10;4.40;;;26.70;81.10;;;;;;4961103;28;20488;-93
2022/05/19 10:47:29;;;;;;;5.40;4.07;;;26.70;81.10;;;;;;4994115;28;20478;-91
2022/05/19 10:50:20;;;;;;;5.27;4.87;;;26.70;81.10;;;;;;4996038;28;20429;-90
2022/05/19 10:53:01;;;;;;;4.90;3.90;;;26.80;81.10;;;;;;4995975;28;20550;-90
2022/05/19 10:55:56;;;;;;;4.90;4.50;;;26.90;81.10;;;;;;4976962;28;20425;-90
2022/05/19 10:58:53;;;;;;;4.53;4.13;;;26.90;81.00;;;;;;4979964;28;20441;-88
2022/05/19 11:01:42;;;;;;;5.27;4.87;;;27.00;81.00;;;;;;4996184;28;20457;-90
2022/05/19 11:04:38;;;;;;;4.80;4.40;;;27.00;80.90;;;;;;4980311;28;20436;-89
2022/05/19 11:07:22;;;;;;;5.07;4.53;;;27.00;80.90;;;;;;4986249;28;20427;-90
2022/05/19 11:10:20;;;;;;;5.40;4.90;;;27.10;80.80;;;;;;4982425;28;20422;-88
2022/05/19 11:13:04;;;;;;;6.00;4.60;;;27.10;80.70;;;;;;4979278;28;20456;-89
2022/05/19 11:15:45;;;;;;;4.70;4.30;;;27.10;80.70;;;;;;4993645;28;20529;-89
2022/05/19 11:18:35;;;;;;;5.63;5.17;;;27.20;80.70;;;;;;4979422;28;20417;-89
2022/05/19 11:21:34;;;;;;;5.03;4.53;;;27.20;80.60;;;;;;4961819;28;20449;-88
2022/05/19 11:24:09;;;;;;;5.30;4.90;;;27.20;80.50;;;;;;4995701;28;20550;-90
2022/05/19 11:26:42;;;;;;;5.00;4.60;;;27.20;80.40;;;;;;4983021;28;20421;-88
2022/05/19 11:29:29;;;;;;;5.27;4.87;;;27.30;80.50;;;;;;4991328;28;20543;-88
2022/05/19 11:32:10;;;;;;;5.17;4.80;;;27.30;80.50;;;;;;4992946;28;20674;-88
2022/05/19 11:34:55;;;;;;;4.83;4.43;;;27.30;80.40;;;;;;4980990;28;20436;-88
2022/05/19 11:37:40;;;;;;;4.60;4.23;;;27.40;80.40;;;;;;4960207;28;20434;-88
2022/05/19 11:40:33;;;;;;;4.87;4.47;;;27.40;80.40;;;;;;4959997;28;20438;-90
2022/05/19 11:43:28;;;;;;;5.13;4.70;;;27.40;80.40;;;;;;4982075;28;20826;-90
2022/05/19 11:46:20;;;;;;;5.33;4.93;;;27.50;80.50;;;;;;4975543;28;20460;-87
2022/05/19 11:57:54;;;;;;;5.53;4.97;;;27.60;80.50;;;;;;4966087;28;20428;-88
2022/05/19 12:00:35;;;;;;;5.10;4.60;;;27.70;80.60;;;;;;4975015;28;20488;-89
2022/05/19 12:03:14;;;;;;;4.87;4.47;;;27.70;80.50;;;;;;4960525;28;20922;-89
2022/05/19 12:05:50;;;;;;;4.90;4.50;;;27.80;80.50;;;;;;4963299;28;20528;-89
2022/05/19 12:08:34;;;;;;;5.47;4.20;;;27.80;80.40;;;;;;4963617;28;20501;-90
2022/05/19 12:11:18;;;;;;;5.40;5.00;;;27.80;80.10;;;;;;4978974;28;20442;-89
2022/05/19 12:14:11;;;;;;;5.27;4.87;;;27.90;79.90;;;;;;4979602;28;20458;-91
2022/05/19 12:16:45;;;;;;;5.70;5.30;;;27.90;79.70;;;;;;4957882;28;20442;-94
2022/05/19 12:19:29;;;;;;;4.80;4.30;;;28.00;79.60;;;;;;4963405;28;20763;-91
2022/05/19 12:21:55;;;;;;;4.97;4.57;;;28.00;79.40;;;;;;4998440;28;20440;-91
2022/05/19 12:24:53;;;;;;;5.30;4.80;;;28.00;79.20;;;;;;4982927;28;20442;-89
2022/05/19 12:27:25;;;;;;;7.40;4.93;;;28.10;79.10;;;;;;4984133;28;20448;-90
2022/05/19 12:33:22;;;;;;;9.50;5.30;;;28.10;78.90;;;;;;4998703;28;20460;-90
2022/05/19 12:35:52;;;;;;;4.97;4.60;;;28.10;78.60;;;;;;4982492;28;20486;-90
2022/05/19 12:38:36;;;;;;;7.17;5.37;;;28.20;78.70;;;;;;4966103;28;20550;-89
2022/05/19 12:41:07;;;;;;;5.63;5.20;;;28.20;78.50;;;;;;4982342;28;20483;-91
2022/05/19 12:43:40;;;;;;;5.30;4.80;;;28.20;78.50;;;;;;4998706;28;20495;-88
2022/05/19 12:46:34;;;;;;;6.87;4.60;;;28.30;78.60;;;;;;4997782;28;20410;-89
2022/05/19 12:49:25;;;;;;;5.80;5.20;;;28.20;78.30;;;;;;4981561;28;20796;-86
2022/05/19 12:52:18;;;;;;;5.60;4.80;;;28.30;78.30;;;;;;4993055;28;20845;-88
2022/05/19 12:55:12;;;;;;;5.83;4.63;;;28.40;78.30;;;;;;4973434;28;20501;-91
2022/05/19 12:57:40;;;;;;;5.10;4.53;;;28.40;78.30;;;;;;4978509;28;20513;-89
2022/05/19 13:00:07;;;;;;;8.37;4.80;;;28.40;78.10;;;;;;4984657;28;20494;-88
2022/05/19 13:02:58;;;;;;;5.93;4.90;;;28.40;78.90;;;;;;4964289;28;20801;-88
2022/05/19 13:05:33;;;;;;;6.10;5.43;;;28.40;78.70;;;;;;4996956;28;20480;-89
2022/05/19 13:08:10;;;;;;;4.67;4.20;;;28.40;77.80;;;;;;4996849;28;20455;-88
2022/05/19 13:10:40;;;;;;;6.17;4.13;;;28.40;77.50;;;;;;4979799;28;20429;-88
2022/05/19 13:13:21;;;;;;;14.43;4.50;;;28.40;77.30;;;;;;4992965;28;20521;-88
2022/05/19 13:15:58;;;;;;;12.83;4.10;;;28.40;76.80;;;;;;4975654;28;20452;-87
2022/05/19 13:18:32;;;;;;;15.07;4.53;;;28.40;76.50;;;;;;4969624;28;20449;-88
2022/05/19 13:21:07;;;;;;;15.03;3.70;;;28.40;76.20;;;;;;4961981;28;20969;-88
2022/05/19 13:23:40;;;;;;;13.80;3.40;;;28.40;76.10;;;;;;4984992;28;20488;-86
2022/05/19 13:26:25;;;;;;;13.40;2.83;;;28.30;76.10;;;;;;4978658;28;20426;-87
2022/05/19 13:32:07;;;;;;;15.10;3.77;;;28.20;77.20;;;;;;4980163;28;20476;-86
2022/05/19 13:34:46;;;;;;;7.60;3.43;;;28.20;77.80;;;;;;4980365;28;20753;-88
2022/05/19 13:37:32;;;;;;;9.60;3.10;;;28.20;78.70;;;;;;4979182;28;20872;-89
2022/05/19 13:40:16;;;;;;;8.83;3.00;;;28.10;79.30;;;;;;4996494;28;20406;-87
2022/05/19 13:42:53;;;;;;;8.37;2.87;;;28.10;79.90;;;;;;4980577;28;20417;-86
2022/05/19 13:45:22;;;;;;;10.63;3.03;;;28.10;80.40;;;;;;4979655;28;20525;-87
2022/05/19 13:47:49;;;;;;;10.83;3.30;;;28.00;80.80;;;;;;4961808;28;20485;-88
2022/05/19 13:50:26;;;;;;;7.40;2.87;;;28.00;81.20;;;;;;4945161;28;20449;-90